sensor_id;sensor_type;location;lat;lon;timestamp;temperature;humidity
19044;DHT22;9654;52.302;8.120;2022-10-31T00:00:58;13.10;99.90
19044;DHT22;9654;52.302;8.120;2022-10-31T00:03:25;13.10;99.90
19044;DHT22;9654;52.302;8.120;2022-10-31T00:05:52;13.10;99.90
19044;DHT22;9654;52.302;8.120;2022-10-31T00:08:20;13.10;99.90
19044;DHT22;9654;52.302;8.120;2022-10-31T00:10:47;13.00;99.90
19044;DHT22;9654;52.302;8.120;2022-10-31T00:13:14;13.00;99.90
19044;DHT22;9654;52.302;8.120;2022-10-31T00:15:41;13.00;99.90
19044;DHT22;9654;52.302;8.120;2022-10-31T00:18:09;12.90;99.90
19044;DHT22;9654;52.302;8.120;2022-10-31T00:20:36;13.00;99.90
19044;DHT22;9654;52.302;8.120;2022-10-31T00:23:05;12.90;99.90
19044;DHT22;9654;52.302;8.120;2022-10-31T00:25:35;12.90;99.90
19044;DHT22;9654;52.302;8.120;2022-10-31T00:28:03;12.90;99.90
19044;DHT22;9654;52.302;8.120;2022-10-31T00:30:30;12.90;99.90
19044;DHT22;9654;52.302;8.120;2022-10-31T00:32:56;12.80;99.90
19044;DHT22;9654;52.302;8.120;2022-10-31T00:35:23;12.80;99.90
19044;DHT22;9654;52.302;8.120;2022-10-31T00:37:51;12.80;99.90
19044;DHT22;9654;52.302;8.120;2022-10-31T00:40:18;12.70;99.90
19044;DHT22;9654;52.302;8.120;2022-10-31T00:42:46;12.70;99.90
19044;DHT22;9654;52.302;8.120;2022-10-31T00:45:13;12.70;99.90
19044;DHT22;9654;52.302;8.120;2022-10-31T00:47:40;12.60;99.90
19044;DHT22;9654;52.302;8.120;2022-10-31T00:50:07;12.50;99.90
19044;DHT22;9654;52.302;8.120;2022-10-31T00:52:34;12.50;99.90
19044;DHT22;9654;52.302;8.120;2022-10-31T00:55:01;12.50;99.90
19044;DHT22;9654;52.302;8.120;2022-10-31T00:57:28;12.40;99.90
19044;DHT22;9654;52.302;8.120;2022-10-31T00:59:56;12.30;99.90
19044;DHT22;9654;52.302;8.120;2022-10-31T01:02:23;12.30;99.90
19044;DHT22;9654;52.302;8.120;2022-10-31T01:04:50;12.30;99.90
19044;DHT22;9654;52.302;8.120;2022-10-31T01:07:17;12.20;99.90
19044;DHT22;9654;52.302;8.120;2022-10-31T01:09:44;12.10;99.90
19044;DHT22;9654;52.302;8.120;2022-10-31T01:12:10;12.10;99.90
19044;DHT22;9654;52.302;8.120;2022-10-31T01:14:37;12.10;99.90
19044;DHT22;9654;52.302;8.120;2022-10-31T01:17:05;12.00;99.90
19044;DHT22;9654;52.302;8.120;2022-10-31T01:19:32;12.00;99.90
19044;DHT22;9654;52.302;8.120;2022-10-31T01:21:59;11.90;99.90
19044;DHT22;9654;52.302;8.120;2022-10-31T01:24:25;11.80;99.90
19044;DHT22;9654;52.302;8.120;2022-10-31T01:26:52;11.80;99.90
19044;DHT22;9654;52.302;8.120;2022-10-31T01:29:19;11.80;99.90
19044;DHT22;9654;52.302;8.120;2022-10-31T01:31:46;11.70;99.90
19044;DHT22;9654;52.302;8.120;2022-10-31T01:34:16;11.70;99.90
19044;DHT22;9654;52.302;8.120;2022-10-31T01:36:44;11.70;99.90
19044;DHT22;9654;52.302;8.120;2022-10-31T01:39:14;11.70;99.90
19044;DHT22;9654;52.302;8.120;2022-10-31T01:41:43;11.70;99.90
19044;DHT22;9654;52.302;8.120;2022-10-31T01:47:16;11.70;99.90
19044;DHT22;9654;52.302;8.120;2022-10-31T01:49:46;11.70;99.90
19044;DHT22;9654;52.302;8.120;2022-10-31T01:52:18;11.70;99.90
19044;DHT22;9654;52.302;8.120;2022-10-31T01:54:48;11.70;99.90
19044;DHT22;9654;52.302;8.120;2022-10-31T01:57:17;11.70;99.90
19044;DHT22;9654;52.302;8.120;2022-10-31T01:59:47;11.70;99.90
19044;DHT22;9654;52.302;8.120;2022-10-31T02:02:15;11.60;99.90
19044;DHT22;9654;52.302;8.120;2022-10-31T02:04:44;11.70;99.90
19044;DHT22;9654;52.302;8.120;2022-10-31T02:07:14;11.60;99.90
19044;DHT22;9654;52.302;8.120;2022-10-31T02:09:43;11.60;99.90
19044;DHT22;9654;52.302;8.120;2022-10-31T02:12:12;11.60;99.90
19044;DHT22;9654;52.302;8.120;2022-10-31T02:14:39;11.60;99.90
19044;DHT22;9654;52.302;8.120;2022-10-31T02:17:06;11.60;99.90
19044;DHT22;9654;52.302;8.120;2022-10-31T02:19:40;11.60;99.90
19044;DHT22;9654;52.302;8.120;2022-10-31T02:22:16;11.60;99.90
19044;DHT22;9654;52.302;8.120;2022-10-31T02:24:50;11.50;99.90
19044;DHT22;9654;52.302;8.120;2022-10-31T02:30:15;11.50;99.90
19044;DHT22;9654;52.302;8.120;2022-10-31T02:33:00;11.40;99.90
19044;DHT22;9654;52.302;8.120;2022-10-31T02:35:39;11.40;99.90
19044;DHT22;9654;52.302;8.120;2022-10-31T02:38:14;11.40;99.90
19044;DHT22;9654;52.302;8.120;2022-10-31T02:40:51;11.40;99.90
19044;DHT22;9654;52.302;8.120;2022-10-31T02:43:21;11.30;99.90
19044;DHT22;9654;52.302;8.120;2022-10-31T02:45:57;11.20;99.90
19044;DHT22;9654;52.302;8.120;2022-10-31T02:48:28;11.30;99.90
19044;DHT22;9654;52.302;8.120;2022-10-31T02:50:57;11.30;99.90
19044;DHT22;9654;52.302;8.120;2022-10-31T02:53:25;11.30;99.90
19044;DHT22;9654;52.302;8.120;2022-10-31T02:55:58;11.20;99.90
19044;DHT22;9654;52.302;8.120;2022-10-31T02:58:29;11.10;99.90
19044;DHT22;9654;52.302;8.120;2022-10-31T03:01:22;11.10;99.90
19044;DHT22;9654;52.302;8.120;2022-10-31T03:04:03;11.00;99.90
19044;DHT22;9654;52.302;8.120;2022-10-31T03:06:37;11.00;99.90
19044;DHT22;9654;52.302;8.120;2022-10-31T03:09:13;11.00;99.90
19044;DHT22;9654;52.302;8.120;2022-10-31T03:11:45;10.90;99.90
19044;DHT22;9654;52.302;8.120;2022-10-31T03:14:19;10.90;99.90
19044;DHT22;9654;52.302;8.120;2022-10-31T03:16:49;10.90;99.90
19044;DHT22;9654;52.302;8.120;2022-10-31T03:19:22;10.90;99.90
19044;DHT22;9654;52.302;8.120;2022-10-31T03:21:54;10.90;99.90
19044;DHT22;9654;52.302;8.120;2022-10-31T03:24:29;10.80;99.90
19044;DHT22;9654;52.302;8.120;2022-10-31T03:26:59;10.80;99.90
19044;DHT22;9654;52.302;8.120;2022-10-31T03:29:29;10.80;99.90
19044;DHT22;9654;52.302;8.120;2022-10-31T03:32:00;10.70;99.90
19044;DHT22;9654;52.302;8.120;2022-10-31T03:34:30;10.70;99.90
19044;DHT22;9654;52.302;8.120;2022-10-31T03:37:00;10.70;99.90
19044;DHT22;9654;52.302;8.120;2022-10-31T03:39:28;10.80;99.90
19044;DHT22;9654;52.302;8.120;2022-10-31T03:41:59;10.90;99.90
19044;DHT22;9654;52.302;8.120;2022-10-31T03:44:27;10.90;99.90
19044;DHT22;9654;52.302;8.120;2022-10-31T03:46:56;10.80;99.90
19044;DHT22;9654;52.302;8.120;2022-10-31T03:49:22;10.70;99.90
19044;DHT22;9654;52.302;8.120;2022-10-31T03:51:57;10.60;99.90
19044;DHT22;9654;52.302;8.120;2022-10-31T03:54:28;10.60;99.90
19044;DHT22;9654;52.302;8.120;2022-10-31T03:57:03;10.50;99.90
19044;DHT22;9654;52.302;8.120;2022-10-31T03:59:34;10.40;99.90
19044;DHT22;9654;52.302;8.120;2022-10-31T04:02:06;10.30;99.90
19044;DHT22;9654;52.302;8.120;2022-10-31T04:04:34;10.30;99.90
19044;DHT22;9654;52.302;8.120;2022-10-31T04:07:05;10.20;99.90
19044;DHT22;9654;52.302;8.120;2022-10-31T04:09:35;10.10;99.90
19044;DHT22;9654;52.302;8.120;2022-10-31T04:12:05;10.10;99.90
19044;DHT22;9654;52.302;8.120;2022-10-31T04:14:37;10.00;99.90
19044;DHT22;9654;52.302;8.120;2022-10-31T04:17:06;10.00;99.90
19044;DHT22;9654;52.302;8.120;2022-10-31T04:19:35;10.00;99.90
19044;DHT22;9654;52.302;8.120;2022-10-31T04:22:03;9.90;99.90
19044;DHT22;9654;52.302;8.120;2022-10-31T04:24:30;9.80;99.90
19044;DHT22;9654;52.302;8.120;2022-10-31T04:26:57;9.80;99.90
19044;DHT22;9654;52.302;8.120;2022-10-31T04:29:24;9.70;99.90
19044;DHT22;9654;52.302;8.120;2022-10-31T04:31:50;9.70;99.90
19044;DHT22;9654;52.302;8.120;2022-10-31T04:34:17;9.70;99.90
19044;DHT22;9654;52.302;8.120;2022-10-31T04:36:44;9.60;99.90
19044;DHT22;9654;52.302;8.120;2022-10-31T04:39:12;9.60;99.90
19044;DHT22;9654;52.302;8.120;2022-10-31T04:41:39;9.50;99.90
19044;DHT22;9654;52.302;8.120;2022-10-31T04:44:06;9.50;99.90
19044;DHT22;9654;52.302;8.120;2022-10-31T04:46:32;9.50;99.90
19044;DHT22;9654;52.302;8.120;2022-10-31T04:48:59;9.50;99.90
19044;DHT22;9654;52.302;8.120;2022-10-31T04:51:26;9.50;99.90
19044;DHT22;9654;52.302;8.120;2022-10-31T04:53:53;9.50;99.90
19044;DHT22;9654;52.302;8.120;2022-10-31T04:56:21;9.40;99.90
19044;DHT22;9654;52.302;8.120;2022-10-31T04:58:47;9.40;99.90
19044;DHT22;9654;52.302;8.120;2022-10-31T05:01:14;9.40;99.90
19044;DHT22;9654;52.302;8.120;2022-10-31T05:03:41;9.40;99.90
19044;DHT22;9654;52.302;8.120;2022-10-31T05:06:08;9.40;99.90
19044;DHT22;9654;52.302;8.120;2022-10-31T05:08:34;9.40;99.90
19044;DHT22;9654;52.302;8.120;2022-10-31T05:11:01;9.40;99.90
19044;DHT22;9654;52.302;8.120;2022-10-31T05:13:30;9.40;99.90
19044;DHT22;9654;52.302;8.120;2022-10-31T05:15:57;9.40;99.90
19044;DHT22;9654;52.302;8.120;2022-10-31T05:18:24;9.40;99.90
19044;DHT22;9654;52.302;8.120;2022-10-31T05:20:50;9.40;99.90
19044;DHT22;9654;52.302;8.120;2022-10-31T05:23:17;9.40;99.90
19044;DHT22;9654;52.302;8.120;2022-10-31T05:25:44;9.40;99.90
19044;DHT22;9654;52.302;8.120;2022-10-31T05:28:11;9.40;99.90
19044;DHT22;9654;52.302;8.120;2022-10-31T05:30:39;9.40;99.90
19044;DHT22;9654;52.302;8.120;2022-10-31T05:33:05;9.40;99.90
19044;DHT22;9654;52.302;8.120;2022-10-31T05:35:33;9.40;99.90
19044;DHT22;9654;52.302;8.120;2022-10-31T05:38:00;9.30;99.90
19044;DHT22;9654;52.302;8.120;2022-10-31T05:40:27;9.40;99.90
19044;DHT22;9654;52.302;8.120;2022-10-31T05:42:55;9.40;99.90
19044;DHT22;9654;52.302;8.120;2022-10-31T05:45:23;9.30;99.90
19044;DHT22;9654;52.302;8.120;2022-10-31T05:47:52;9.30;99.90
19044;DHT22;9654;52.302;8.120;2022-10-31T05:50:19;9.30;99.90
19044;DHT22;9654;52.302;8.120;2022-10-31T05:52:46;9.40;99.90
19044;DHT22;9654;52.302;8.120;2022-10-31T05:55:13;9.30;99.90
19044;DHT22;9654;52.302;8.120;2022-10-31T05:57:40;9.40;99.90
19044;DHT22;9654;52.302;8.120;2022-10-31T06:00:08;9.40;99.90
19044;DHT22;9654;52.302;8.120;2022-10-31T06:02:35;9.40;99.90
19044;DHT22;9654;52.302;8.120;2022-10-31T06:05:03;9.40;99.90
19044;DHT22;9654;52.302;8.120;2022-10-31T06:07:34;9.50;99.90
19044;DHT22;9654;52.302;8.120;2022-10-31T06:10:02;9.50;99.90
19044;DHT22;9654;52.302;8.120;2022-10-31T06:12:29;9.50;99.90
19044;DHT22;9654;52.302;8.120;2022-10-31T06:14:56;9.50;99.90
19044;DHT22;9654;52.302;8.120;2022-10-31T06:17:22;9.60;99.90
19044;DHT22;9654;52.302;8.120;2022-10-31T06:19:49;9.60;99.90
19044;DHT22;9654;52.302;8.120;2022-10-31T06:22:17;9.60;99.90
19044;DHT22;9654;52.302;8.120;2022-10-31T06:24:44;9.60;99.90
19044;DHT22;9654;52.302;8.120;2022-10-31T06:27:11;9.60;99.90
19044;DHT22;9654;52.302;8.120;2022-10-31T06:29:37;9.60;99.90
19044;DHT22;9654;52.302;8.120;2022-10-31T06:32:04;9.60;99.90
19044;DHT22;9654;52.302;8.120;2022-10-31T06:34:31;9.60;99.90
19044;DHT22;9654;52.302;8.120;2022-10-31T06:36:58;9.60;99.90
19044;DHT22;9654;52.302;8.120;2022-10-31T06:39:26;9.60;99.90
19044;DHT22;9654;52.302;8.120;2022-10-31T06:41:53;9.60;99.90
19044;DHT22;9654;52.302;8.120;2022-10-31T06:44:19;9.60;99.90
19044;DHT22;9654;52.302;8.120;2022-10-31T06:46:46;9.60;99.90
19044;DHT22;9654;52.302;8.120;2022-10-31T06:49:13;9.50;99.90
19044;DHT22;9654;52.302;8.120;2022-10-31T06:51:40;9.60;99.90
19044;DHT22;9654;52.302;8.120;2022-10-31T06:54:07;9.60;99.90
19044;DHT22;9654;52.302;8.120;2022-10-31T06:56:35;9.60;99.90
19044;DHT22;9654;52.302;8.120;2022-10-31T06:59:02;9.60;99.90
19044;DHT22;9654;52.302;8.120;2022-10-31T07:01:29;9.60;99.90
19044;DHT22;9654;52.302;8.120;2022-10-31T07:03:55;9.60;99.90
19044;DHT22;9654;52.302;8.120;2022-10-31T07:06:22;9.60;99.90
19044;DHT22;9654;52.302;8.120;2022-10-31T07:08:49;9.70;99.90
19044;DHT22;9654;52.302;8.120;2022-10-31T07:11:16;9.70;99.90
19044;DHT22;9654;52.302;8.120;2022-10-31T07:13:44;9.70;99.90
19044;DHT22;9654;52.302;8.120;2022-10-31T07:16:11;9.80;99.90
19044;DHT22;9654;52.302;8.120;2022-10-31T07:18:40;9.80;99.90
19044;DHT22;9654;52.302;8.120;2022-10-31T07:21:06;9.80;99.90
19044;DHT22;9654;52.302;8.120;2022-10-31T07:23:33;9.80;99.90
19044;DHT22;9654;52.302;8.120;2022-10-31T07:26:00;9.90;99.90
19044;DHT22;9654;52.302;8.120;2022-10-31T07:28:27;9.90;99.90
19044;DHT22;9654;52.302;8.120;2022-10-31T07:30:57;10.00;99.90
19044;DHT22;9654;52.302;8.120;2022-10-31T07:33:24;10.10;99.90
19044;DHT22;9654;52.302;8.120;2022-10-31T07:35:55;10.10;99.90
19044;DHT22;9654;52.302;8.120;2022-10-31T07:38:21;10.20;99.90
19044;DHT22;9654;52.302;8.120;2022-10-31T07:40:50;10.30;99.90
19044;DHT22;9654;52.302;8.120;2022-10-31T07:43:18;10.30;99.90
19044;DHT22;9654;52.302;8.120;2022-10-31T07:45:49;10.40;99.90
19044;DHT22;9654;52.302;8.120;2022-10-31T07:48:17;10.40;99.90
19044;DHT22;9654;52.302;8.120;2022-10-31T07:50:44;10.40;99.90
19044;DHT22;9654;52.302;8.120;2022-10-31T07:53:12;10.50;99.90
19044;DHT22;9654;52.302;8.120;2022-10-31T07:55:40;10.60;99.90
19044;DHT22;9654;52.302;8.120;2022-10-31T07:58:08;10.50;99.90
19044;DHT22;9654;52.302;8.120;2022-10-31T08:00:36;10.50;99.90
19044;DHT22;9654;52.302;8.120;2022-10-31T08:03:04;10.60;99.90
19044;DHT22;9654;52.302;8.120;2022-10-31T08:05:34;10.60;99.90
19044;DHT22;9654;52.302;8.120;2022-10-31T08:08:01;10.70;99.90
19044;DHT22;9654;52.302;8.120;2022-10-31T08:10:28;10.80;99.90
19044;DHT22;9654;52.302;8.120;2022-10-31T08:12:56;10.90;99.90
19044;DHT22;9654;52.302;8.120;2022-10-31T08:15:23;11.00;99.90
19044;DHT22;9654;52.302;8.120;2022-10-31T08:17:50;11.00;99.90
19044;DHT22;9654;52.302;8.120;2022-10-31T08:20:17;11.10;99.90
19044;DHT22;9654;52.302;8.120;2022-10-31T08:22:55;11.10;99.90
19044;DHT22;9654;52.302;8.120;2022-10-31T08:25:22;11.30;99.90
19044;DHT22;9654;52.302;8.120;2022-10-31T08:27:50;11.40;99.90
19044;DHT22;9654;52.302;8.120;2022-10-31T08:30:18;11.50;99.90
19044;DHT22;9654;52.302;8.120;2022-10-31T08:32:44;11.60;99.90
19044;DHT22;9654;52.302;8.120;2022-10-31T08:35:11;11.70;99.90
19044;DHT22;9654;52.302;8.120;2022-10-31T08:37:38;11.80;99.90
19044;DHT22;9654;52.302;8.120;2022-10-31T08:40:07;11.80;99.90
19044;DHT22;9654;52.302;8.120;2022-10-31T08:42:34;11.90;99.90
19044;DHT22;9654;52.302;8.120;2022-10-31T08:45:01;12.00;99.90
19044;DHT22;9654;52.302;8.120;2022-10-31T08:47:28;12.10;99.90
19044;DHT22;9654;52.302;8.120;2022-10-31T08:49:55;12.20;99.90
19044;DHT22;9654;52.302;8.120;2022-10-31T08:52:23;12.30;99.90
19044;DHT22;9654;52.302;8.120;2022-10-31T08:54:50;12.40;99.90
19044;DHT22;9654;52.302;8.120;2022-10-31T08:57:18;12.60;99.90
19044;DHT22;9654;52.302;8.120;2022-10-31T08:59:45;12.70;99.90
19044;DHT22;9654;52.302;8.120;2022-10-31T09:02:12;12.90;99.90
19044;DHT22;9654;52.302;8.120;2022-10-31T09:04:39;12.90;99.90
19044;DHT22;9654;52.302;8.120;2022-10-31T09:07:05;13.00;99.90
19044;DHT22;9654;52.302;8.120;2022-10-31T09:09:32;13.10;99.90
19044;DHT22;9654;52.302;8.120;2022-10-31T09:11:59;13.30;99.90
19044;DHT22;9654;52.302;8.120;2022-10-31T09:14:27;13.40;99.90
19044;DHT22;9654;52.302;8.120;2022-10-31T09:16:53;13.60;99.90
19044;DHT22;9654;52.302;8.120;2022-10-31T09:19:20;13.70;99.90
19044;DHT22;9654;52.302;8.120;2022-10-31T09:21:47;13.80;99.90
19044;DHT22;9654;52.302;8.120;2022-10-31T09:24:13;13.90;99.90
19044;DHT22;9654;52.302;8.120;2022-10-31T09:26:40;14.00;99.90
19044;DHT22;9654;52.302;8.120;2022-10-31T09:29:07;14.00;99.90
19044;DHT22;9654;52.302;8.120;2022-10-31T09:31:36;14.00;99.90
19044;DHT22;9654;52.302;8.120;2022-10-31T09:34:03;14.10;99.90
19044;DHT22;9654;52.302;8.120;2022-10-31T09:36:30;14.10;99.90
19044;DHT22;9654;52.302;8.120;2022-10-31T09:38:56;14.20;99.90
19044;DHT22;9654;52.302;8.120;2022-10-31T09:41:30;14.30;99.90
19044;DHT22;9654;52.302;8.120;2022-10-31T09:44:07;14.40;99.90
19044;DHT22;9654;52.302;8.120;2022-10-31T09:46:46;14.60;99.90
19044;DHT22;9654;52.302;8.120;2022-10-31T09:49:30;14.80;99.90
19044;DHT22;9654;52.302;8.120;2022-10-31T09:52:02;15.00;99.90
19044;DHT22;9654;52.302;8.120;2022-10-31T09:54:35;15.20;99.90
19044;DHT22;9654;52.302;8.120;2022-10-31T09:57:03;15.40;99.90
19044;DHT22;9654;52.302;8.120;2022-10-31T09:59:34;15.50;99.90
19044;DHT22;9654;52.302;8.120;2022-10-31T10:02:10;15.60;99.90
19044;DHT22;9654;52.302;8.120;2022-10-31T10:04:44;15.70;99.90
19044;DHT22;9654;52.302;8.120;2022-10-31T10:07:19;15.90;99.90
19044;DHT22;9654;52.302;8.120;2022-10-31T10:09:49;16.00;99.90
19044;DHT22;9654;52.302;8.120;2022-10-31T10:12:20;16.00;99.90
19044;DHT22;9654;52.302;8.120;2022-10-31T10:15:02;16.10;99.90
19044;DHT22;9654;52.302;8.120;2022-10-31T10:17:43;16.20;99.90
19044;DHT22;9654;52.302;8.120;2022-10-31T10:20:28;16.30;99.90
19044;DHT22;9654;52.302;8.120;2022-10-31T10:23:17;16.50;99.90
19044;DHT22;9654;52.302;8.120;2022-10-31T10:25:52;16.60;99.90
19044;DHT22;9654;52.302;8.120;2022-10-31T10:28:23;16.70;99.90
19044;DHT22;9654;52.302;8.120;2022-10-31T10:30:56;16.80;99.90
19044;DHT22;9654;52.302;8.120;2022-10-31T10:33:30;16.90;99.90
19044;DHT22;9654;52.302;8.120;2022-10-31T10:36:00;17.00;99.90
19044;DHT22;9654;52.302;8.120;2022-10-31T10:38:30;17.10;99.90
19044;DHT22;9654;52.302;8.120;2022-10-31T10:41:03;17.10;99.90
19044;DHT22;9654;52.302;8.120;2022-10-31T10:43:34;17.30;99.90
19044;DHT22;9654;52.302;8.120;2022-10-31T10:46:16;17.30;99.90
19044;DHT22;9654;52.302;8.120;2022-10-31T10:49:11;17.30;99.90
19044;DHT22;9654;52.302;8.120;2022-10-31T10:51:43;17.20;99.90
19044;DHT22;9654;52.302;8.120;2022-10-31T10:54:41;17.20;99.90
19044;DHT22;9654;52.302;8.120;2022-10-31T10:57:17;17.20;99.90
19044;DHT22;9654;52.302;8.120;2022-10-31T10:59:47;17.10;99.90
19044;DHT22;9654;52.302;8.120;2022-10-31T11:02:17;17.20;99.90
19044;DHT22;9654;52.302;8.120;2022-10-31T11:04:49;17.20;99.90
19044;DHT22;9654;52.302;8.120;2022-10-31T11:07:16;17.20;99.90
19044;DHT22;9654;52.302;8.120;2022-10-31T11:09:43;17.30;99.90
19044;DHT22;9654;52.302;8.120;2022-10-31T11:12:15;17.30;99.90
19044;DHT22;9654;52.302;8.120;2022-10-31T11:14:45;17.40;99.90
19044;DHT22;9654;52.302;8.120;2022-10-31T11:17:20;17.40;99.90
19044;DHT22;9654;52.302;8.120;2022-10-31T11:20:00;17.40;99.90
19044;DHT22;9654;52.302;8.120;2022-10-31T11:22:27;17.50;99.90
19044;DHT22;9654;52.302;8.120;2022-10-31T11:24:53;17.60;99.90
19044;DHT22;9654;52.302;8.120;2022-10-31T11:27:22;17.70;99.90
19044;DHT22;9654;52.302;8.120;2022-10-31T11:29:49;17.70;99.90
19044;DHT22;9654;52.302;8.120;2022-10-31T11:32:19;17.60;99.90
19044;DHT22;9654;52.302;8.120;2022-10-31T11:34:50;17.60;99.90
19044;DHT22;9654;52.302;8.120;2022-10-31T11:37:20;17.60;99.90
19044;DHT22;9654;52.302;8.120;2022-10-31T11:39:50;17.70;99.90
19044;DHT22;9654;52.302;8.120;2022-10-31T11:42:21;17.90;99.90
19044;DHT22;9654;52.302;8.120;2022-10-31T11:44:50;17.80;99.90
19044;DHT22;9654;52.302;8.120;2022-10-31T11:47:23;17.80;99.90
19044;DHT22;9654;52.302;8.120;2022-10-31T11:49:53;17.80;99.90
19044;DHT22;9654;52.302;8.120;2022-10-31T11:52:22;17.70;99.90
19044;DHT22;9654;52.302;8.120;2022-10-31T11:54:53;17.70;99.90
19044;DHT22;9654;52.302;8.120;2022-10-31T11:57:27;17.70;99.90
19044;DHT22;9654;52.302;8.120;2022-10-31T11:59:56;17.80;99.90
19044;DHT22;9654;52.302;8.120;2022-10-31T12:02:24;17.80;99.90
19044;DHT22;9654;52.302;8.120;2022-10-31T12:04:58;17.70;99.90
19044;DHT22;9654;52.302;8.120;2022-10-31T12:07:26;17.70;99.90
19044;DHT22;9654;52.302;8.120;2022-10-31T12:09:53;17.80;99.90
19044;DHT22;9654;52.302;8.120;2022-10-31T12:12:41;17.80;99.90
19044;DHT22;9654;52.302;8.120;2022-10-31T12:15:29;17.80;99.90
19044;DHT22;9654;52.302;8.120;2022-10-31T12:18:11;17.80;99.90
19044;DHT22;9654;52.302;8.120;2022-10-31T12:20:53;17.80;99.90
19044;DHT22;9654;52.302;8.120;2022-10-31T12:23:28;17.90;99.90
19044;DHT22;9654;52.302;8.120;2022-10-31T12:26:08;17.90;99.90
19044;DHT22;9654;52.302;8.120;2022-10-31T12:29:02;17.90;99.90
19044;DHT22;9654;52.302;8.120;2022-10-31T12:31:50;18.00;99.90
19044;DHT22;9654;52.302;8.120;2022-10-31T12:34:37;18.20;99.90
19044;DHT22;9654;52.302;8.120;2022-10-31T12:37:15;18.30;99.90
19044;DHT22;9654;52.302;8.120;2022-10-31T12:39:54;18.50;99.90
19044;DHT22;9654;52.302;8.120;2022-10-31T12:42:36;18.50;99.90
19044;DHT22;9654;52.302;8.120;2022-10-31T12:45:18;18.60;99.90
19044;DHT22;9654;52.302;8.120;2022-10-31T12:47:59;18.60;99.90
19044;DHT22;9654;52.302;8.120;2022-10-31T12:50:35;18.50;99.90
19044;DHT22;9654;52.302;8.120;2022-10-31T12:53:19;18.30;99.90
19044;DHT22;9654;52.302;8.120;2022-10-31T12:55:59;18.30;99.90
19044;DHT22;9654;52.302;8.120;2022-10-31T12:58:33;18.20;99.90
19044;DHT22;9654;52.302;8.120;2022-10-31T13:01:08;18.10;99.90
19044;DHT22;9654;52.302;8.120;2022-10-31T13:03:41;18.00;99.90
19044;DHT22;9654;52.302;8.120;2022-10-31T13:06:13;17.90;99.90
19044;DHT22;9654;52.302;8.120;2022-10-31T13:08:44;17.90;99.90
19044;DHT22;9654;52.302;8.120;2022-10-31T13:11:16;17.80;99.90
19044;DHT22;9654;52.302;8.120;2022-10-31T13:13:50;17.80;99.90
19044;DHT22;9654;52.302;8.120;2022-10-31T13:16:20;17.70;99.90
19044;DHT22;9654;52.302;8.120;2022-10-31T13:18:52;17.70;99.90
19044;DHT22;9654;52.302;8.120;2022-10-31T13:21:30;17.70;99.90
19044;DHT22;9654;52.302;8.120;2022-10-31T13:24:01;17.60;99.90
19044;DHT22;9654;52.302;8.120;2022-10-31T13:26:36;17.60;99.90
19044;DHT22;9654;52.302;8.120;2022-10-31T13:29:09;17.60;99.90
19044;DHT22;9654;52.302;8.120;2022-10-31T13:31:40;17.60;99.90
19044;DHT22;9654;52.302;8.120;2022-10-31T13:34:17;17.60;99.90
19044;DHT22;9654;52.302;8.120;2022-10-31T13:36:50;17.60;99.90
19044;DHT22;9654;52.302;8.120;2022-10-31T13:39:28;17.50;99.90
19044;DHT22;9654;52.302;8.120;2022-10-31T13:42:01;17.40;99.90
19044;DHT22;9654;52.302;8.120;2022-10-31T13:44:30;17.40;99.90
19044;DHT22;9654;52.302;8.120;2022-10-31T13:46:57;17.40;99.90
19044;DHT22;9654;52.302;8.120;2022-10-31T13:49:37;17.40;99.90
19044;DHT22;9654;52.302;8.120;2022-10-31T13:52:23;17.30;99.90
19044;DHT22;9654;52.302;8.120;2022-10-31T13:54:53;17.30;99.90
19044;DHT22;9654;52.302;8.120;2022-10-31T13:57:31;17.30;99.90
19044;DHT22;9654;52.302;8.120;2022-10-31T14:00:00;17.30;99.90
19044;DHT22;9654;52.302;8.120;2022-10-31T14:02:30;17.20;99.90
19044;DHT22;9654;52.302;8.120;2022-10-31T14:04:59;17.20;99.90
19044;DHT22;9654;52.302;8.120;2022-10-31T14:07:28;17.20;99.90
19044;DHT22;9654;52.302;8.120;2022-10-31T14:09:59;17.10;99.90
19044;DHT22;9654;52.302;8.120;2022-10-31T14:12:30;17.10;99.90
19044;DHT22;9654;52.302;8.120;2022-10-31T14:15:02;17.10;99.90
19044;DHT22;9654;52.302;8.120;2022-10-31T14:17:36;17.10;99.90
19044;DHT22;9654;52.302;8.120;2022-10-31T14:20:31;17.00;99.90
19044;DHT22;9654;52.302;8.120;2022-10-31T14:22:59;16.90;99.90
19044;DHT22;9654;52.302;8.120;2022-10-31T14:25:38;16.90;99.90
19044;DHT22;9654;52.302;8.120;2022-10-31T14:28:22;16.80;99.90
19044;DHT22;9654;52.302;8.120;2022-10-31T14:30:58;16.80;99.90
19044;DHT22;9654;52.302;8.120;2022-10-31T14:33:27;16.80;99.90
19044;DHT22;9654;52.302;8.120;2022-10-31T14:36:01;16.80;99.90
19044;DHT22;9654;52.302;8.120;2022-10-31T14:38:42;16.80;99.90
19044;DHT22;9654;52.302;8.120;2022-10-31T14:41:22;16.90;99.90
19044;DHT22;9654;52.302;8.120;2022-10-31T14:44:14;16.80;99.90
19044;DHT22;9654;52.302;8.120;2022-10-31T14:46:48;16.80;99.90
19044;DHT22;9654;52.302;8.120;2022-10-31T14:49:29;16.80;99.90
19044;DHT22;9654;52.302;8.120;2022-10-31T14:52:01;16.90;99.90
19044;DHT22;9654;52.302;8.120;2022-10-31T14:54:32;16.90;99.90
19044;DHT22;9654;52.302;8.120;2022-10-31T14:57:04;16.80;99.90
19044;DHT22;9654;52.302;8.120;2022-10-31T14:59:36;16.80;99.90
19044;DHT22;9654;52.302;8.120;2022-10-31T15:02:12;16.70;99.90
19044;DHT22;9654;52.302;8.120;2022-10-31T15:04:41;16.70;99.90
19044;DHT22;9654;52.302;8.120;2022-10-31T15:07:13;16.70;99.90
19044;DHT22;9654;52.302;8.120;2022-10-31T15:09:41;16.60;99.90
19044;DHT22;9654;52.302;8.120;2022-10-31T15:12:23;16.60;99.90
19044;DHT22;9654;52.302;8.120;2022-10-31T15:14:51;16.60;99.90
19044;DHT22;9654;52.302;8.120;2022-10-31T15:17:18;16.50;99.90
19044;DHT22;9654;52.302;8.120;2022-10-31T15:19:46;16.50;99.90
19044;DHT22;9654;52.302;8.120;2022-10-31T15:22:15;16.40;99.90
19044;DHT22;9654;52.302;8.120;2022-10-31T15:24:45;16.40;99.90
19044;DHT22;9654;52.302;8.120;2022-10-31T15:27:14;16.30;99.90
19044;DHT22;9654;52.302;8.120;2022-10-31T15:29:50;16.30;99.90
19044;DHT22;9654;52.302;8.120;2022-10-31T15:32:19;16.30;99.90
19044;DHT22;9654;52.302;8.120;2022-10-31T15:34:48;16.30;99.90
19044;DHT22;9654;52.302;8.120;2022-10-31T15:37:16;16.20;99.90
19044;DHT22;9654;52.302;8.120;2022-10-31T15:39:44;16.20;99.90
19044;DHT22;9654;52.302;8.120;2022-10-31T15:42:18;16.10;99.90
19044;DHT22;9654;52.302;8.120;2022-10-31T15:45:00;16.10;99.90
19044;DHT22;9654;52.302;8.120;2022-10-31T15:47:29;16.10;99.90
19044;DHT22;9654;52.302;8.120;2022-10-31T15:49:59;16.00;99.90
19044;DHT22;9654;52.302;8.120;2022-10-31T15:52:31;16.00;99.90
19044;DHT22;9654;52.302;8.120;2022-10-31T15:55:01;16.00;99.90
19044;DHT22;9654;52.302;8.120;2022-10-31T15:57:29;15.90;99.90
19044;DHT22;9654;52.302;8.120;2022-10-31T15:59:58;15.90;99.90
19044;DHT22;9654;52.302;8.120;2022-10-31T16:02:26;15.90;99.90
19044;DHT22;9654;52.302;8.120;2022-10-31T16:04:56;15.80;99.90
19044;DHT22;9654;52.302;8.120;2022-10-31T16:07:23;15.80;99.90
19044;DHT22;9654;52.302;8.120;2022-10-31T16:09:53;15.70;99.90
19044;DHT22;9654;52.302;8.120;2022-10-31T16:12:21;15.70;99.90
19044;DHT22;9654;52.302;8.120;2022-10-31T16:14:49;15.70;99.90
19044;DHT22;9654;52.302;8.120;2022-10-31T16:17:20;15.60;99.90